Terminal Aerodrome Forecast
Issued by NWS

Home | Current Version | Previous Version | Text Only | Print | Product List | Glossary On
Versions: 1 2 3 4 5 6 7 8 9 10 11 12 13 14 15 16 17 18 19 20 21 22 23
000
FTUS41 KALY 180531
TAFPSF
TAF
KPSF 180531Z 1806/1906 VRB03KT P6SM SKC WS020/26030KT
      TEMPO 1807/1811 3SM BR
     FM181400 27005KT P6SM FEW250
     FM181800 23006KT P6SM SKC
     FM190000 VRB03KT P6SM SKC=

USA.gov is the U.S. government's official web portal to all federal, state and local government web resources and services.